エカテリンブルク の空港の天気 - METARとTAF

コルツォヴォ空港 ( USSS / SVX ) - ロシア エカテリンブルク
飛行場実況気象(Metar)
観測時間03/29 02:00 +05 (03/28 21:00 UTC)
風向・風速南 4m/s
視程10km以上
天気現象
全天を覆う雲 雲底高度 1040m
気温-1℃
湿度86%
気圧991hPa
METARUSSS 282100Z 18004MPS 9999 OVC034 M01/M03 Q0991 R08L/190050 NOSIG RMK QFE724/0965
過去の天気等 Google飛行場航空写真 Wunderground天気予報

過去48時間のMETAR

飛行場予報(TAF)
発表時間: 3/29 00:50 +05 (3/28 19:50 UTC)
予報対象時間: 29日2時 +05 ~ 30日2時 +05
風向・風速南南東 3m/s
視程3,000m
天気現象弱いしゅう雪
全天の8割程度の雲 雲底高度 300m
全天の4割程度の積乱雲 雲底高度 610m
29日10時 +05 ~ 29日12時 +05 に徐々に
視程10km以上
天気現象運行に影響にある天気現象が終了
TAF USSS 281950Z 2821/2921 15003MPS 3000 -SHSN BKN010 SCT020CB
BECMG 2905/2907 9999 NSW